Time;durP1;ratioP1;P1;durP2;ratioP2;P2;SDS_P1;SDS_P2;PMS_P1;PMS_P2;Temp;Humidity;BMP_temperature;BMP_pressure;BME280_temperature;BME280_humidity;BME280_pressure;Samples;Min_cycle;Max_cycle;Signal;HPM_P1;HPM_P2
2022/12/04 00:02:02;;;;;;;258.25;134.10;;;;;;;14.80;77.79;99141.75;4984866;28;20042;-65
2022/12/04 00:04:44;;;;;;;257.83;137.23;;;;;;;14.98;77.78;99141.69;4980840;28;20716;-66
2022/12/04 00:07:33;;;;;;;259.63;136.23;;;;;;;14.97;77.16;99137.31;4978354;28;20098;-65
2022/12/04 00:10:15;;;;;;;259.92;136.73;;;;;;;15.01;77.71;99138.50;4978717;28;20366;-65
2022/12/04 00:13:05;;;;;;;261.73;135.88;;;;;;;14.95;77.54;99142.13;4985636;28;20046;-67
2022/12/04 00:15:47;;;;;;;247.43;135.05;;;;;;;14.99;77.54;99142.50;4978995;28;20058;-65
2022/12/04 00:18:36;;;;;;;252.15;132.05;;;;;;;14.91;77.24;99149.06;4981745;28;20043;-66
2022/12/04 00:21:25;;;;;;;247.82;133.75;;;;;;;14.86;77.43;99146.22;4973983;28;20592;-66
2022/12/04 00:24:14;;;;;;;255.60;135.20;;;;;;;14.69;77.41;99151.44;4978001;28;20109;-66
2022/12/04 00:26:56;;;;;;;251.68;134.75;;;;;;;14.48;78.63;99155.44;4986700;28;20137;-65
2022/12/04 00:29:45;;;;;;;253.38;133.27;;;;;;;14.55;78.24;99161.59;4962347;28;20533;-65
2022/12/04 00:32:30;;;;;;;261.88;134.65;;;;;;;14.55;77.64;99168.88;4978753;28;20057;-66
2022/12/04 00:35:19;;;;;;;262.48;135.35;;;;;;;14.78;76.88;99174.38;4978875;28;20133;-66
2022/12/04 00:38:02;;;;;;;249.60;136.10;;;;;;;14.87;76.30;99169.50;4978581;28;20314;-65
2022/12/04 00:40:59;;;;;;;263.58;134.75;;;;;;;14.78;76.68;99168.16;4978545;28;20509;-66
2022/12/04 00:43:42;;;;;;;253.45;134.82;;;;;;;14.66;77.56;99170.84;4978463;28;20336;-65
2022/12/04 00:46:31;;;;;;;250.07;131.75;;;;;;;14.66;77.53;99171.66;4978234;28;20077;-65
2022/12/04 00:49:12;;;;;;;250.77;132.15;;;;;;;14.54;76.83;99167.22;4978483;28;20047;-66
2022/12/04 00:52:01;;;;;;;239.60;129.88;;;;;;;14.59;78.35;99170.91;4981059;28;20141;-66
2022/12/04 00:54:44;;;;;;;254.07;129.85;;;;;;;14.73;78.14;99178.81;4978588;28;20054;-65
2022/12/04 00:57:32;;;;;;;241.70;129.43;;;;;;;14.68;77.76;99174.94;4976421;28;20129;-66
2022/12/04 01:00:15;;;;;;;252.85;128.65;;;;;;;14.71;77.42;99175.53;4980210;28;20065;-65
2022/12/04 01:03:03;;;;;;;253.00;132.68;;;;;;;14.59;77.24;99176.31;4985592;28;20058;-66
2022/12/04 01:05:45;;;;;;;253.82;129.30;;;;;;;14.64;76.86;99181.03;4981120;28;20050;-65
2022/12/04 01:08:35;;;;;;;240.13;125.20;;;;;;;14.55;77.33;99176.97;4977179;28;20130;-66
2022/12/04 01:11:25;;;;;;;247.18;128.70;;;;;;;14.39;77.98;99181.97;4978814;28;20074;-66
2022/12/04 01:14:14;;;;;;;247.48;128.57;;;;;;;14.44;78.96;99182.09;4976163;28;20108;-64
2022/12/04 01:17:09;;;;;;;247.85;129.77;;;;;;;14.61;78.56;99182.31;4976570;28;20054;-65
2022/12/04 01:19:45;;;;;;;252.82;132.90;;;;;;;14.62;78.28;99178.56;4975444;28;20409;-65
2022/12/04 01:22:34;;;;;;;262.55;131.05;;;;;;;14.67;78.20;99180.56;4977873;28;20144;-66
2022/12/04 01:25:23;;;;;;;262.67;130.80;;;;;;;14.68;78.18;99177.66;4977162;28;20050;-65
2022/12/04 01:28:04;;;;;;;266.65;135.30;;;;;;;14.77;78.11;99185.41;4978899;28;20053;-65
2022/12/04 01:31:11;;;;;;;257.10;133.77;;;;;;;14.84;77.56;99176.16;4957824;28;20501;-65
2022/12/04 01:33:53;;;;;;;265.98;132.73;;;;;;;14.79;77.32;99191.41;4978381;28;20068;-65
2022/12/04 01:36:42;;;;;;;275.23;138.10;;;;;;;14.83;77.79;99192.63;4977870;28;20105;-66
2022/12/04 01:39:31;;;;;;;267.35;134.63;;;;;;;14.82;79.05;99193.66;4977374;28;20043;-67
2022/12/04 01:42:21;;;;;;;274.88;135.35;;;;;;;15.02;79.03;99196.91;4977574;28;20122;-65
2022/12/04 01:45:42;;;;;;;275.13;137.10;;;;;;;15.07;78.51;99196.22;4977188;28;20545;-66
2022/12/04 01:48:51;;;;;;;278.45;140.65;;;;;;;15.13;78.29;99203.38;4975888;28;20058;-65
2022/12/04 01:51:38;;;;;;;260.92;132.57;;;;;;;15.00;77.44;99207.13;4958956;28;20054;-66
2022/12/04 01:54:36;;;;;;;266.48;133.88;;;;;;;14.66;78.12;99204.06;4978705;28;20133;-65
2022/12/04 01:57:35;;;;;;;258.08;133.15;;;;;;;14.62;78.04;99200.19;4979000;28;20447;-64
2022/12/04 02:00:15;;;;;;;258.85;132.50;;;;;;;14.52;78.31;99201.72;4975941;28;20042;-65
2022/12/04 02:03:03;;;;;;;262.55;132.75;;;;;;;14.47;78.40;99202.44;4978201;28;20050;-65
2022/12/04 02:05:52;;;;;;;259.23;130.85;;;;;;;14.35;78.28;99215.03;4977289;28;20057;-66
2022/12/04 02:08:36;;;;;;;248.48;130.90;;;;;;;14.06;79.51;99212.03;4978220;28;20054;-64
2022/12/04 02:11:57;;;;;;;252.70;132.98;;;;;;;14.30;79.38;99203.03;4978196;28;20066;-65
2022/12/04 02:14:57;;;;;;;262.65;133.93;;;;;;;14.51;78.80;99203.63;4976449;28;20343;-64
2022/12/04 02:18:11;;;;;;;260.48;131.52;;;;;;;14.42;78.91;99213.06;4979502;28;20108;-65
2022/12/04 02:21:58;;;;;;;261.55;132.18;;;;;;;14.48;78.43;99223.81;4974545;28;20864;-65
2022/12/04 02:25:06;;;;;;;257.85;132.52;;;;;;;14.27;78.81;99226.94;4886074;29;20060;-64
2022/12/04 02:28:28;;;;;;;284.05;136.80;;;;;;;14.13;80.07;99226.28;4889960;29;20148;-65
2022/12/04 02:31:16;;;;;;;287.50;136.85;;;;;;;14.60;78.87;99239.28;4979246;28;20046;-65
2022/12/04 02:34:12;;;;;;;276.38;137.13;;;;;;;14.59;78.80;99243.84;4976365;28;20055;-64
2022/12/04 02:37:09;;;;;;;275.55;140.00;;;;;;;14.57;78.67;99248.66;4978961;28;20042;-64
2022/12/04 02:40:02;;;;;;;277.92;139.50;;;;;;;14.75;78.56;99255.06;4996388;28;20370;-64
2022/12/04 02:42:51;;;;;;;280.00;141.35;;;;;;;14.84;78.32;99251.00;4987322;28;20128;-62
2022/12/04 02:45:49;;;;;;;297.98;150.20;;;;;;;15.06;78.67;99249.44;4996591;28;20137;-65
2022/12/04 02:48:35;;;;;;;306.27;145.73;;;;;;;15.22;78.68;99252.56;4993326;28;20711;-65
2022/12/04 02:51:27;;;;;;;291.02;146.52;;;;;;;15.20;77.84;99260.88;4993905;28;20818;-65
2022/12/04 02:54:24;;;;;;;292.90;144.27;;;;;;;15.59;77.46;99258.63;4977778;28;20038;-66
2022/12/04 02:57:19;;;;;;;293.55;145.27;;;;;;;15.67;77.24;99265.59;4993607;28;20104;-66
2022/12/04 03:00:06;;;;;;;282.02;144.65;;;;;;;15.78;78.32;99272.91;4991438;28;20501;-65
2022/12/04 03:03:06;;;;;;;287.80;144.82;;;;;;;16.01;77.94;99273.97;4994826;28;20119;-66
2022/12/04 03:06:09;;;;;;;280.55;145.30;;;;;;;16.28;77.83;99271.63;4993974;28;20161;-66
2022/12/04 03:09:30;;;;;;;295.52;144.10;;;;;;;15.84;77.69;99285.50;4995464;28;20148;-65
2022/12/04 03:12:51;;;;;;;284.17;139.00;;;;;;;16.43;76.67;99290.91;4998511;28;20354;-66
2022/12/04 03:15:49;;;;;;;271.20;141.77;;;;;;;16.73;76.24;99280.94;4993428;28;20046;-66
2022/12/04 03:18:45;;;;;;;280.15;140.18;;;;;;;17.06;75.51;99282.94;4999161;28;20042;-66
2022/12/04 03:21:37;;;;;;;272.33;140.27;;;;;;;17.51;74.13;99284.03;4993072;28;20062;-66
2022/12/04 03:24:43;;;;;;;260.45;138.02;;;;;;;17.67;73.58;99294.06;4989512;28;20140;-66
2022/12/04 03:27:56;;;;;;;231.90;124.25;;;;;;;17.91;72.07;99294.75;4990125;28;20370;-65
2022/12/04 03:30:41;;;;;;;227.55;117.40;;;;;;;18.43;70.48;99299.03;4996693;28;20519;-65
2022/12/04 03:33:37;;;;;;;211.85;111.60;;;;;;;19.02;69.52;99298.44;4993611;28;20097;-65
2022/12/04 03:37:04;;;;;;;194.98;104.43;;;;;;;19.41;66.71;99305.63;4989094;28;20058;-65
2022/12/04 03:40:07;;;;;;;165.27;92.07;;;;;;;19.69;63.98;99299.91;4972132;28;20046;-65
2022/12/04 03:43:10;;;;;;;164.75;91.22;;;;;;;20.03;64.65;99304.28;5003619;28;20525;-65
2022/12/04 03:46:31;;;;;;;166.95;88.88;;;;;;;20.49;62.35;99310.03;4994520;28;20046;-66
2022/12/04 03:49:51;;;;;;;159.75;93.82;;;;;;;20.53;60.28;99311.13;4968938;28;20137;-65
2022/12/04 03:53:07;;;;;;;151.05;91.68;;;;;;;21.11;60.93;99311.94;4971500;28;20150;-66
2022/12/04 03:56:31;;;;;;;150.75;88.68;;;;;;;21.31;58.52;99321.28;4969167;28;20082;-65
2022/12/04 03:59:46;;;;;;;151.13;88.32;;;;;;;21.54;57.77;99319.16;4968409;28;20043;-64
2022/12/04 04:02:43;;;;;;;149.50;87.33;;;;;;;21.56;57.79;99327.91;5002923;28;20065;-64
2022/12/04 04:05:28;;;;;;;138.23;82.28;;;;;;;21.65;55.96;99321.63;4982975;28;20473;-65
2022/12/04 04:08:25;;;;;;;141.18;83.35;;;;;;;22.09;57.42;99332.00;4984953;28;20513;-64
2022/12/04 04:11:16;;;;;;;142.57;82.45;;;;;;;22.17;54.53;99327.09;4975894;28;20058;-65
2022/12/04 04:24:14;;;;;;;100.38;57.45;;;;;;;22.43;50.30;99331.44;5007067;28;20058;-65
2022/12/04 04:26:58;;;;;;;99.28;58.40;;;;;;;22.85;50.50;99330.22;5007437;28;20057;-67
2022/12/04 04:29:49;;;;;;;97.13;56.72;;;;;;;22.76;50.01;99329.16;5007293;28;20050;-65
2022/12/04 04:32:42;;;;;;;95.60;55.63;;;;;;;22.80;49.22;99324.75;4968722;28;20089;-65
2022/12/04 04:35:43;;;;;;;99.80;54.65;;;;;;;22.44;49.31;99326.78;4968495;28;20128;-65
2022/12/04 04:38:25;;;;;;;108.13;59.60;;;;;;;22.43;49.69;99325.97;4968196;28;20134;-66
2022/12/04 04:41:17;;;;;;;100.72;56.50;;;;;;;22.20;49.20;99331.97;4992240;28;20116;-65
2022/12/04 04:44:33;;;;;;;88.35;52.17;;;;;;;22.03;47.61;99333.09;5007292;28;20144;-65
2022/12/04 04:47:23;;;;;;;76.07;43.42;;;;;;;22.35;48.30;99351.13;4968035;28;20058;-64
2022/12/04 04:50:15;;;;;;;63.60;39.33;;;;;;;22.19;47.21;99346.75;4968122;28;20102;-65
2022/12/04 04:53:04;;;;;;;73.07;40.47;;;;;;;22.26;46.94;99352.78;4968703;28;20066;-65
2022/12/04 04:55:54;;;;;;;68.60;38.65;;;;;;;21.64;48.52;99351.94;5006587;28;20053;-65
2022/12/04 04:58:35;;;;;;;68.65;36.85;;;;;;;21.81;48.39;99351.69;5007279;28;20079;-65
2022/12/04 05:01:27;;;;;;;59.35;33.30;;;;;;;21.79;47.31;99348.41;5006417;28;20061;-65
2022/12/04 05:04:10;;;;;;;55.88;31.90;;;;;;;21.72;46.71;99347.84;5006857;28;20568;-65
2022/12/04 05:06:59;;;;;;;54.05;32.38;;;;;;;21.61;47.82;99349.75;5006798;28;20152;-64
2022/12/04 05:09:41;;;;;;;56.97;32.25;;;;;;;21.49;47.44;99356.28;5006158;28;20049;-62
2022/12/04 05:12:30;;;;;;;53.92;30.38;;;;;;;21.77;46.37;99361.53;4986817;28;20105;-62
2022/12/04 05:15:13;;;;;;;53.60;31.58;;;;;;;22.05;45.82;99360.97;4986768;28;20499;-61
2022/12/04 05:18:02;;;;;;;55.17;30.38;;;;;;;21.93;46.63;99371.34;4996867;28;20073;-61
2022/12/04 05:20:45;;;;;;;53.58;28.88;;;;;;;22.25;45.39;99356.63;5000255;28;20050;-62
2022/12/04 05:23:35;;;;;;;52.47;29.65;;;;;;;22.08;46.68;99349.50;4967599;28;20514;-61
2022/12/04 05:26:24;;;;;;;58.55;32.88;;;;;;;22.32;45.13;99351.69;4967106;28;20057;-61
2022/12/04 05:29:06;;;;;;;54.90;30.77;;;;;;;22.01;44.56;99340.75;4980629;28;20507;-61
2022/12/04 05:31:55;;;;;;;59.75;32.55;;;;;;;22.17;47.03;99354.41;4988440;28;20291;-61
2022/12/04 05:34:47;;;;;;;55.92;31.27;;;;;;;22.55;45.28;99349.47;5005564;28;20049;-61
2022/12/04 05:37:31;;;;;;;55.97;31.20;;;;;;;22.54;47.36;99343.16;5006538;28;20117;-62
2022/12/04 05:40:26;;;;;;;60.75;33.00;;;;;;;22.96;43.88;99343.84;5006541;28;20408;-61
2022/12/04 05:43:02;;;;;;;62.38;31.98;;;;;;;22.96;44.73;99339.19;4986434;28;20050;-60
2022/12/04 05:45:52;;;;;;;55.83;31.73;;;;;;;22.51;43.42;99337.41;4986934;28;20428;-62
2022/12/04 05:48:34;;;;;;;63.60;33.85;;;;;;;22.48;42.78;99325.13;4986759;28;20377;-61
2022/12/04 05:51:22;;;;;;;61.90;32.63;;;;;;;23.10;44.30;99333.97;5000511;28;20127;-59
2022/12/04 05:54:11;;;;;;;55.38;33.10;;;;;;;23.16;41.82;99324.63;5005548;28;20654;-61
2022/12/04 05:56:54;;;;;;;52.95;31.77;;;;;;;23.70;42.78;99319.34;5002574;28;20058;-61
2022/12/04 05:59:43;;;;;;;52.85;32.53;;;;;;;24.12;43.91;99315.19;4996137;28;20417;-61
2022/12/04 06:02:33;;;;;;;59.92;33.10;;;;;;;23.44;41.95;99311.28;4993206;28;20145;-62
2022/12/04 06:05:15;;;;;;;61.92;35.35;;;;;;;23.80;42.13;99308.31;4993455;28;20104;-61
2022/12/04 06:08:10;;;;;;;55.55;35.67;;;;;;;23.70;42.57;99302.91;4995061;28;20157;-63
2022/12/04 06:10:46;;;;;;;52.05;32.33;;;;;;;23.97;42.00;99303.22;4987217;28;20057;-61
2022/12/04 06:13:34;;;;;;;65.78;34.35;;;;;;;23.72;41.92;99306.16;4992007;28;20470;-60
2022/12/04 06:16:25;;;;;;;61.22;33.50;;;;;;;23.73;42.38;99292.19;4993446;28;20038;-61
2022/12/04 06:19:24;;;;;;;61.97;33.92;;;;;;;23.49;41.54;99281.13;4994256;28;20117;-60
2022/12/04 06:22:07;;;;;;;64.18;35.50;;;;;;;23.79;43.18;99285.59;4993100;28;20556;-61
2022/12/04 06:24:55;;;;;;;67.70;35.05;;;;;;;23.90;41.59;99275.31;4994184;28;20141;-62
2022/12/04 06:27:44;;;;;;;63.75;36.10;;;;;;;24.31;40.91;99272.19;4990189;28;20382;-65
2022/12/04 06:30:26;;;;;;;58.42;34.90;;;;;;;24.35;41.84;99261.44;4984829;28;20370;-64
2022/12/04 06:33:15;;;;;;;66.60;35.72;;;;;;;23.89;41.67;99261.94;4985696;28;20427;-64
2022/12/04 06:36:00;;;;;;;69.28;37.13;;;;;;;23.76;42.07;99257.91;4985374;28;20092;-64
2022/12/04 06:38:49;;;;;;;58.65;36.75;;;;;;;24.20;42.90;99256.94;5001490;28;20058;-64
2022/12/04 06:41:31;;;;;;;79.32;38.15;;;;;;;24.14;42.39;99247.16;4983735;28;20041;-64
2022/12/04 06:44:21;;;;;;;61.85;36.92;;;;;;;24.53;42.22;99248.91;5006495;28;20061;-64
2022/12/04 06:47:04;;;;;;;63.88;36.80;;;;;;;24.52;41.14;99231.66;4980316;28;20053;-63
2022/12/04 06:49:57;;;;;;;74.97;38.70;;;;;;;24.38;41.16;99231.50;4984088;28;20093;-62
2022/12/04 06:52:45;;;;;;;66.63;36.58;;;;;;;24.61;42.46;99223.56;4998694;28;20492;-62
2022/12/04 06:55:34;;;;;;;67.35;36.53;;;;;;;24.25;41.63;99218.50;5001557;28;20379;-64
2022/12/04 06:58:16;;;;;;;61.25;36.03;;;;;;;24.24;41.50;99223.16;4989928;28;20053;-65
2022/12/04 07:01:05;;;;;;;65.80;35.83;;;;;;;24.15;41.70;99219.44;4995960;28;20070;-65
2022/12/04 07:03:47;;;;;;;65.88;37.67;;;;;;;24.54;40.95;99212.16;4982195;28;20051;-65
2022/12/04 07:06:43;;;;;;;63.58;34.60;;;;;;;24.76;41.21;99215.16;4976136;28;20529;-63
2022/12/04 07:09:25;;;;;;;55.03;31.00;;;;;;;24.51;39.92;99198.97;4988233;28;20048;-67
2022/12/04 07:12:14;;;;;;;53.80;33.42;;;;;;;24.22;40.66;99199.88;5000083;28;20053;-64
2022/12/04 07:15:09;;;;;;;61.60;34.58;;;;;;;24.24;40.53;99192.16;4993308;28;20048;-63
2022/12/04 07:18:05;;;;;;;58.90;34.33;;;;;;;24.84;41.76;99190.88;4971808;28;20070;-64
2022/12/04 07:20:55;;;;;;;78.38;39.97;;;;;;;24.48;41.75;99177.63;4982204;28;20573;-61
2022/12/04 07:23:46;;;;;;;65.72;36.05;;;;;;;24.18;41.72;99180.44;4975709;28;20114;-62
2022/12/04 07:26:35;;;;;;;68.85;41.75;;;;;;;24.28;42.15;99163.03;4969047;28;20458;-62
2022/12/04 07:29:17;;;;;;;68.20;37.00;;;;;;;23.95;41.52;99173.84;4985022;28;20046;-62
2022/12/04 07:32:06;;;;;;;66.25;38.72;;;;;;;24.29;42.27;99161.13;4998284;28;20046;-64
2022/12/04 07:34:55;;;;;;;65.55;36.50;;;;;;;24.27;40.17;99158.69;4987465;28;20054;-62
2022/12/04 07:37:37;;;;;;;66.97;39.95;;;;;;;24.42;41.84;99153.00;4995760;28;20267;-62
2022/12/04 07:40:27;;;;;;;83.88;44.80;;;;;;;23.79;41.80;99148.53;4995083;28;20136;-62
2022/12/04 07:43:15;;;;;;;87.47;47.20;;;;;;;24.64;42.80;99139.84;4996180;28;20038;-64
2022/12/04 07:46:09;;;;;;;74.03;42.75;;;;;;;24.62;41.33;99124.47;4990646;28;20046;-64
2022/12/04 07:48:52;;;;;;;64.82;35.72;;;;;;;24.40;40.61;99119.56;4978223;28;20065;-66
2022/12/04 07:51:40;;;;;;;61.75;36.63;;;;;;;24.48;42.32;99114.53;4981360;28;20051;-65
2022/12/04 07:54:22;;;;;;;69.80;39.10;;;;;;;24.52;40.75;99110.09;4979822;28;20054;-66
2022/12/04 07:57:11;;;;;;;64.10;35.33;;;;;;;24.51;40.78;99097.44;4979864;28;20146;-65
2022/12/04 07:59:53;;;;;;;55.63;34.60;;;;;;;24.71;40.74;99097.19;4988244;28;20117;-65
2022/12/04 08:02:45;;;;;;;77.43;35.95;;;;;;;24.24;41.31;99087.94;4998807;28;20056;-68
2022/12/04 08:05:33;;;;;;;70.40;37.88;;;;;;;24.55;39.80;99080.16;4999942;28;20490;-65
2022/12/04 08:08:15;;;;;;;78.22;41.50;;;;;;;24.96;41.27;99076.75;4998202;28;20149;-65
2022/12/04 08:11:07;;;;;;;71.20;40.55;;;;;;;24.57;40.12;99074.34;4988240;28;20096;-65
2022/12/04 08:13:51;;;;;;;77.65;40.58;;;;;;;24.59;40.97;99061.13;4990916;28;20552;-65
2022/12/04 08:16:39;;;;;;;68.38;40.40;;;;;;;24.64;41.64;99058.31;4983890;28;20101;-65
2022/12/04 08:19:38;;;;;;;71.28;38.58;;;;;;;24.86;41.11;99059.63;5006941;28;20398;-65
2022/12/04 08:22:14;;;;;;;60.20;35.05;;;;;;;24.81;41.14;99053.09;5007678;28;20061;-65
2022/12/04 08:25:06;;;;;;;67.10;35.80;;;;;;;24.74;40.62;99047.16;5008371;28;20057;-67
2022/12/04 08:27:48;;;;;;;71.35;37.35;;;;;;;24.59;41.17;99044.66;5007153;28;20065;-66
2022/12/04 08:30:43;;;;;;;65.05;37.20;;;;;;;24.34;41.51;99048.59;4967575;28;20050;-64
2022/12/04 08:33:19;;;;;;;60.00;35.95;;;;;;;24.13;40.81;99043.41;4992819;28;20484;-67
2022/12/04 08:36:11;;;;;;;59.80;34.67;;;;;;;24.09;40.50;99038.81;5004246;28;20057;-69
2022/12/04 08:39:01;;;;;;;74.20;38.35;;;;;;;24.53;41.75;99040.38;4992252;28;20073;-66
2022/12/04 08:41:43;;;;;;;74.38;42.58;;;;;;;24.49;40.81;99029.16;4980417;28;20054;-65
2022/12/04 08:44:36;;;;;;;73.40;37.67;;;;;;;24.63;41.07;99021.03;4995384;28;20069;-67
2022/12/04 08:47:18;;;;;;;59.08;37.35;;;;;;;24.40;40.88;99009.00;4987224;28;89993;-67
2022/12/04 08:50:08;;;;;;;65.93;36.53;;;;;;;24.46;41.41;99007.81;4980425;28;20123;-66
2022/12/04 08:52:50;;;;;;;66.40;37.37;;;;;;;24.27;40.13;98999.59;4978230;28;20059;-67
2022/12/04 08:55:41;;;;;;;66.10;39.35;;;;;;;24.34;40.47;99000.06;4974559;28;20308;-68
2022/12/04 08:58:37;;;;;;;73.97;40.85;;;;;;;24.45;40.95;98986.16;4958751;28;20065;-66
2022/12/04 09:01:13;;;;;;;75.20;39.90;;;;;;;24.65;40.72;98988.63;4973459;28;20042;-66
2022/12/04 09:04:03;;;;;;;79.13;43.40;;;;;;;24.59;40.31;98992.53;4978422;28;20644;-65
2022/12/04 09:06:52;;;;;;;78.70;43.58;;;;;;;24.71;40.73;98986.59;4959445;28;20050;-66
2022/12/04 09:09:48;;;;;;;93.43;47.75;;;;;;;24.00;41.59;98981.91;4975923;28;20114;-66
2022/12/04 09:12:24;;;;;;;78.18;44.83;;;;;;;24.39;42.25;98975.25;4972274;28;20054;-63
2022/12/04 09:15:13;;;;;;;84.72;47.15;;;;;;;24.53;41.86;98974.53;4972276;28;20050;-64
2022/12/04 09:17:55;;;;;;;86.68;50.47;;;;;;;24.48;41.36;98972.66;4970513;28;20054;-64
2022/12/04 09:20:43;;;;;;;102.32;52.45;;;;;;;24.47;42.20;98975.72;4967441;28;20067;-63
2022/12/04 09:23:33;;;;;;;103.70;53.58;;;;;;;24.62;42.55;98972.72;4981153;28;20172;-62
2022/12/04 09:26:27;;;;;;;102.00;56.95;;;;;;;24.47;43.55;98968.28;4977869;28;20046;-62
2022/12/04 09:29:12;;;;;;;107.50;56.67;;;;;;;24.50;45.24;98964.16;4974222;28;20050;-63
2022/12/04 09:32:00;;;;;;;111.25;57.55;;;;;;;24.52;44.27;98959.19;4976642;28;20113;-62
2022/12/04 09:34:49;;;;;;;95.65;53.90;;;;;;;24.11;43.58;98962.53;4973000;28;20062;-62
2022/12/04 09:37:26;;;;;;;105.45;53.97;;;;;;;24.17;43.46;98940.25;4959206;28;20339;-67
2022/12/04 09:40:28;;;;;;;94.38;50.65;;;;;;;24.52;44.07;98948.22;4973690;28;20050;-66
2022/12/04 09:43:28;;;;;;;90.70;51.13;;;;;;;24.48;44.50;98944.44;4975478;28;20580;-65
2022/12/04 09:46:41;;;;;;;98.40;52.70;;;;;;;24.34;44.71;98939.72;4946735;28;20058;-65
2022/12/04 09:49:40;;;;;;;83.35;48.58;;;;;;;24.32;43.39;98947.41;4962523;28;20133;-63
2022/12/04 09:52:43;;;;;;;82.88;46.72;;;;;;;24.48;42.37;98942.50;4970839;28;20058;-63
2022/12/04 09:55:57;;;;;;;82.75;43.25;;;;;;;24.39;42.73;98947.84;4963324;28;20343;-62
2022/12/04 09:58:59;;;;;;;76.00;42.30;;;;;;;24.41;42.54;98947.53;4958956;28;20129;-63
2022/12/04 10:02:03;;;;;;;78.03;42.35;;;;;;;24.31;42.18;98950.47;4965851;28;20581;-62
2022/12/04 10:04:44;;;;;;;68.78;39.63;;;;;;;24.33;41.70;98946.28;4968838;28;20060;-62
2022/12/04 10:07:57;;;;;;;73.53;41.45;;;;;;;24.25;42.63;98941.50;4983036;28;20141;-63
2022/12/04 10:11:18;;;;;;;72.43;40.95;;;;;;;23.75;43.68;98939.19;4961385;28;20157;-64
2022/12/04 10:14:02;;;;;;;79.18;42.45;;;;;;;24.08;43.84;98935.75;4964068;28;20065;-62
2022/12/04 10:17:34;;;;;;;70.47;41.42;;;;;;;23.97;43.09;98930.41;4965225;28;20058;-62
2022/12/04 10:20:33;;;;;;;74.30;42.23;;;;;;;23.97;43.95;98924.91;4962936;28;20102;-61
2022/12/04 10:23:50;;;;;;;70.90;40.22;;;;;;;23.92;44.63;98922.28;4965377;28;20063;-61
2022/12/04 10:26:38;;;;;;;70.47;38.35;;;;;;;23.96;44.41;98923.31;4963400;28;21276;-66
2022/12/04 10:29:37;;;;;;;69.15;39.58;;;;;;;23.83;43.86;98924.84;4959881;28;20066;-62
2022/12/04 10:32:39;;;;;;;65.40;37.83;;;;;;;23.83;43.50;98924.03;4964870;28;20058;-64
2022/12/04 10:35:35;;;;;;;70.38;38.45;;;;;;;23.89;43.08;98920.09;4963285;28;20729;-61
2022/12/04 10:38:49;;;;;;;66.60;37.30;;;;;;;23.74;44.61;98923.03;4972973;28;20102;-63
2022/12/04 10:41:41;;;;;;;67.65;40.63;;;;;;;23.65;45.02;98912.75;4971824;28;20789;-61
2022/12/04 10:44:36;;;;;;;70.72;39.85;;;;;;;23.60;45.06;98922.97;4963954;28;20896;-60
2022/12/04 10:47:13;;;;;;;67.38;37.15;;;;;;;23.49;45.32;98914.06;4949269;28;20079;-60
2022/12/04 10:50:12;;;;;;;58.83;35.78;;;;;;;23.37;46.08;98917.22;4985744;28;20077;-61
2022/12/04 10:52:55;;;;;;;68.30;37.70;;;;;;;23.32;46.81;98913.75;4972347;28;20058;-61
2022/12/04 10:55:50;;;;;;;64.45;37.33;;;;;;;23.29;45.97;98911.56;4976350;28;20109;-63
2022/12/04 10:58:33;;;;;;;68.05;37.28;;;;;;;23.26;47.99;98910.25;4977062;28;20058;-61
2022/12/04 11:01:22;;;;;;;65.95;37.78;;;;;;;23.18;47.68;98903.50;4968142;28;20097;-60
2022/12/04 11:04:35;;;;;;;67.47;38.95;;;;;;;23.10;47.41;98903.31;4975505;28;20133;-59
2022/12/04 11:07:34;;;;;;;64.45;37.42;;;;;;;22.94;49.08;98894.44;4960044;28;20061;-59
2022/12/04 11:10:56;;;;;;;75.80;39.33;;;;;;;22.86;49.24;98902.19;4969210;28;20082;-61
2022/12/04 11:13:45;;;;;;;70.38;37.97;;;;;;;22.73;50.74;98913.81;4887763;29;20069;-61
2022/12/04 11:16:39;;;;;;;78.47;41.42;;;;;;;22.55;52.36;98911.81;4888039;29;20111;-62
2022/12/04 11:19:24;;;;;;;73.15;41.17;;;;;;;22.44;52.76;98909.16;4976204;28;20444;-64
2022/12/04 11:22:21;;;;;;;76.15;43.08;;;;;;;22.29;54.39;98912.03;4970233;28;20114;-66
2022/12/04 11:25:03;;;;;;;80.10;43.35;;;;;;;22.19;54.80;98903.91;4982951;28;20052;-63
2022/12/04 11:27:58;;;;;;;85.95;45.28;;;;;;;22.03;55.28;98909.47;4974111;28;20134;-60
2022/12/04 11:30:46;;;;;;;81.10;46.03;;;;;;;21.97;55.92;98907.06;4970689;28;20050;-62
2022/12/04 11:33:59;;;;;;;87.32;47.10;;;;;;;21.83;57.59;98904.16;4975931;28;20065;-58
2022/12/04 11:37:02;;;;;;;79.95;46.78;;;;;;;21.73;57.39;98901.50;4978912;28;20050;-60
2022/12/04 11:40:22;;;;;;;86.53;48.55;;;;;;;21.61;58.05;98904.56;4967561;28;20050;-59
2022/12/04 11:43:36;;;;;;;87.43;48.05;;;;;;;21.51;58.56;98905.44;4976712;28;20051;-59
2022/12/04 11:46:39;;;;;;;93.07;48.85;;;;;;;21.41;58.50;98905.47;4964297;28;20046;-61
2022/12/04 11:50:02;;;;;;;91.80;50.03;;;;;;;21.29;59.28;98911.25;4977743;28;20046;-60
2022/12/04 11:53:10;;;;;;;87.32;48.20;;;;;;;21.20;59.61;98904.72;4964939;28;20045;-60
2022/12/04 11:56:31;;;;;;;101.90;51.38;;;;;;;21.10;59.53;98911.03;4969394;28;20078;-61
2022/12/04 11:59:48;;;;;;;92.88;52.10;;;;;;;21.00;60.03;98905.59;4976902;28;20061;-60
2022/12/04 12:03:18;;;;;;;96.60;51.35;;;;;;;20.92;60.08;98902.38;4619864;28;9999817;-64
2022/12/04 12:06:40;;;;;;;91.93;52.88;;;;;;;20.81;60.46;98902.66;4971015;28;20046;-61
2022/12/04 12:09:55;;;;;;;101.55;53.88;;;;;;;20.73;60.93;98906.75;4966882;28;20110;-62
2022/12/04 12:13:23;;;;;;;95.75;52.28;;;;;;;20.60;61.30;98901.88;4946758;29;20526;-60
2022/12/04 12:16:54;;;;;;;105.38;52.10;;;;;;;20.52;60.99;98901.34;4976776;28;20054;-60
2022/12/04 12:20:05;;;;;;;105.78;52.65;;;;;;;20.48;60.84;98910.31;4785154;28;10001315;-60
2022/12/04 12:23:28;;;;;;;98.95;55.10;;;;;;;20.32;60.69;98904.88;4980900;28;20702;-62
2022/12/04 12:26:18;;;;;;;94.47;48.80;;;;;;;20.17;61.64;98910.34;4976515;28;20632;-60
2022/12/04 12:29:09;;;;;;;85.75;49.55;;;;;;;20.02;62.54;98908.41;4984662;28;20066;-60
2022/12/04 12:31:53;;;;;;;105.53;52.22;;;;;;;19.97;63.17;98908.44;4987805;28;20057;-59
2022/12/04 12:34:45;;;;;;;94.82;51.88;;;;;;;19.91;63.48;98915.78;4973786;28;20106;-60
2022/12/04 12:37:42;;;;;;;95.70;50.35;;;;;;;19.88;63.07;98910.84;4972873;28;20514;-60
2022/12/04 12:40:46;;;;;;;91.32;51.13;;;;;;;19.98;62.99;98922.84;4988151;28;20065;-60
2022/12/04 12:43:34;;;;;;;106.60;53.22;;;;;;;19.89;63.07;98920.69;4985673;28;20054;-61
2022/12/04 12:46:48;;;;;;;104.15;52.95;;;;;;;19.85;63.66;98930.47;4982191;28;20050;-61
2022/12/04 12:49:54;;;;;;;105.20;54.33;;;;;;;19.77;64.30;98932.91;4969070;28;20047;-60
2022/12/04 12:53:20;;;;;;;96.82;53.88;;;;;;;19.66;64.57;98932.84;4983722;28;20054;-60
2022/12/04 12:56:05;;;;;;;102.93;53.05;;;;;;;19.59;64.45;98932.28;4949465;29;20061;-59
2022/12/04 12:59:01;;;;;;;109.18;53.53;;;;;;;19.52;64.99;98939.88;4981563;28;20053;-61
2022/12/04 13:01:58;;;;;;;112.65;55.80;;;;;;;19.40;65.18;98933.84;4989110;28;20046;-60
2022/12/04 13:04:50;;;;;;;110.03;55.15;;;;;;;19.40;64.92;98952.91;4984251;28;20074;-60
2022/12/04 13:08:09;;;;;;;107.13;54.90;;;;;;;19.39;65.12;98951.25;4961394;28;20125;-61
2022/12/04 13:11:09;;;;;;;108.70;54.85;;;;;;;19.14;66.06;98948.16;4977990;28;20078;-60
2022/12/04 13:14:02;;;;;;;110.25;56.15;;;;;;;19.11;66.46;98953.31;4954294;28;20713;-60
2022/12/04 13:16:52;;;;;;;103.63;53.75;;;;;;;19.01;67.16;98958.69;4982580;28;20070;-60
2022/12/04 13:19:55;;;;;;;104.57;53.72;;;;;;;19.00;67.08;98957.06;4987570;28;20794;-61
2022/12/04 13:22:56;;;;;;;110.43;54.80;;;;;;;18.97;67.38;98959.22;4969611;28;20050;-60
2022/12/04 13:26:11;;;;;;;120.47;55.75;;;;;;;18.97;67.30;98961.94;4976102;28;20085;-60